sensor_id;sensor_type;location;lat;lon;timestamp;pressure;altitude;pressure_sealevel;temperature;humidity
77526;BME280;66627;29.424;-98.496;2023-05-29T00:03:00;98752.79;;;28.64;34.96
77526;BME280;66627;29.424;-98.496;2023-05-29T00:05:25;98751.31;;;28.57;35.56
77526;BME280;66627;29.424;-98.496;2023-05-29T00:07:56;98753.85;;;28.80;34.92
77526;BME280;66627;29.424;-98.496;2023-05-29T00:10:16;98758.44;;;28.34;35.36
77526;BME280;66627;29.424;-98.496;2023-05-29T00:12:42;98761.31;;;27.01;36.58
77526;BME280;66627;29.424;-98.496;2023-05-29T00:15:08;98759.61;;;28.29;35.92
77526;BME280;66627;29.424;-98.496;2023-05-29T00:17:33;98753.99;;;28.56;35.68
77526;BME280;66627;29.424;-98.496;2023-05-29T00:19:57;98752.61;;;28.61;35.24
77526;BME280;66627;29.424;-98.496;2023-05-29T00:22:23;98752.00;;;28.14;35.56
77526;BME280;66627;29.424;-98.496;2023-05-29T00:24:48;98753.89;;;27.88;36.23
77526;BME280;66627;29.424;-98.496;2023-05-29T00:27:14;98749.55;;;28.06;35.78
77526;BME280;66627;29.424;-98.496;2023-05-29T00:29:38;98749.99;;;28.06;35.85
77526;BME280;66627;29.424;-98.496;2023-05-29T00:32:04;98744.51;;;28.62;35.87
77526;BME280;66627;29.424;-98.496;2023-05-29T00:34:29;98750.83;;;27.54;36.30
77526;BME280;66627;29.424;-98.496;2023-05-29T00:36:54;98752.25;;;27.38;37.00
77526;BME280;66627;29.424;-98.496;2023-05-29T00:39:21;98752.12;;;27.89;36.27
77526;BME280;66627;29.424;-98.496;2023-05-29T00:41:46;98758.06;;;28.31;35.67
77526;BME280;66627;29.424;-98.496;2023-05-29T00:44:11;98764.59;;;28.26;35.83
77526;BME280;66627;29.424;-98.496;2023-05-29T00:46:37;98766.37;;;28.18;36.17
77526;BME280;66627;29.424;-98.496;2023-05-29T00:49:02;98767.31;;;27.50;37.28
77526;BME280;66627;29.424;-98.496;2023-05-29T00:51:28;98762.47;;;27.53;37.29
77526;BME280;66627;29.424;-98.496;2023-05-29T00:53:53;98761.98;;;28.14;36.52
77526;BME280;66627;29.424;-98.496;2023-05-29T00:56:19;98769.34;;;28.29;35.91
77526;BME280;66627;29.424;-98.496;2023-05-29T00:58:44;98775.99;;;27.20;36.91
77526;BME280;66627;29.424;-98.496;2023-05-29T01:01:08;98776.05;;;27.87;36.38
77526;BME280;66627;29.424;-98.496;2023-05-29T01:03:35;98776.41;;;28.53;36.27
77526;BME280;66627;29.424;-98.496;2023-05-29T01:06:00;98778.33;;;27.91;36.27
77526;BME280;66627;29.424;-98.496;2023-05-29T01:08:25;98777.87;;;27.04;36.83
77526;BME280;66627;29.424;-98.496;2023-05-29T01:10:53;98775.48;;;27.57;36.33
77526;BME280;66627;29.424;-98.496;2023-05-29T01:13:19;98781.20;;;27.72;37.23
77526;BME280;66627;29.424;-98.496;2023-05-29T01:15:49;98777.00;;;27.65;36.90
77526;BME280;66627;29.424;-98.496;2023-05-29T01:20:38;98775.23;;;28.12;36.47
77526;BME280;66627;29.424;-98.496;2023-05-29T01:23:06;98774.41;;;27.68;36.74
77526;BME280;66627;29.424;-98.496;2023-05-29T01:25:29;98775.57;;;27.82;37.70
77526;BME280;66627;29.424;-98.496;2023-05-29T01:27:49;98773.72;;;27.88;37.50
77526;BME280;66627;29.424;-98.496;2023-05-29T01:30:15;98770.97;;;28.44;37.95
77526;BME280;66627;29.424;-98.496;2023-05-29T01:32:40;98772.52;;;28.12;37.88
77526;BME280;66627;29.424;-98.496;2023-05-29T01:35:06;98776.86;;;28.37;38.57
77526;BME280;66627;29.424;-98.496;2023-05-29T01:37:31;98775.05;;;27.75;39.33
77526;BME280;66627;29.424;-98.496;2023-05-29T01:39:56;98771.28;;;27.59;39.17
77526;BME280;66627;29.424;-98.496;2023-05-29T01:42:22;98764.69;;;27.93;39.83
77526;BME280;66627;29.424;-98.496;2023-05-29T01:44:47;98765.37;;;26.45;41.07
77526;BME280;66627;29.424;-98.496;2023-05-29T01:47:13;98763.48;;;26.70;41.01
77526;BME280;66627;29.424;-98.496;2023-05-29T01:49:38;98768.12;;;26.90;41.06
77526;BME280;66627;29.424;-98.496;2023-05-29T01:52:03;98773.11;;;27.13;41.43
77526;BME280;66627;29.424;-98.496;2023-05-29T01:54:28;98774.37;;;27.51;40.86
77526;BME280;66627;29.424;-98.496;2023-05-29T01:56:54;98777.93;;;26.81;41.71
77526;BME280;66627;29.424;-98.496;2023-05-29T01:59:24;98777.71;;;27.15;41.05
77526;BME280;66627;29.424;-98.496;2023-05-29T02:01:45;98776.57;;;26.89;41.54
77526;BME280;66627;29.424;-98.496;2023-05-29T02:04:10;98771.83;;;27.32;40.67
77526;BME280;66627;29.424;-98.496;2023-05-29T02:06:35;98768.60;;;27.64;40.90
77526;BME280;66627;29.424;-98.496;2023-05-29T02:09:01;98767.82;;;26.71;41.63
77526;BME280;66627;29.424;-98.496;2023-05-29T02:11:26;98766.42;;;27.00;41.18
77526;BME280;66627;29.424;-98.496;2023-05-29T02:13:52;98765.02;;;26.74;41.68
77526;BME280;66627;29.424;-98.496;2023-05-29T02:16:17;98769.69;;;27.24;41.35
77526;BME280;66627;29.424;-98.496;2023-05-29T02:18:42;98771.94;;;27.09;41.19
77526;BME280;66627;29.424;-98.496;2023-05-29T02:21:07;98775.36;;;26.84;41.33
77526;BME280;66627;29.424;-98.496;2023-05-29T02:23:32;98779.74;;;27.14;41.14
77526;BME280;66627;29.424;-98.496;2023-05-29T02:25:59;98787.55;;;26.50;42.07
77526;BME280;66627;29.424;-98.496;2023-05-29T02:28:23;98792.92;;;26.81;41.78
77526;BME280;66627;29.424;-98.496;2023-05-29T02:30:49;98796.39;;;26.65;42.28
77526;BME280;66627;29.424;-98.496;2023-05-29T02:33:15;98803.07;;;25.58;43.65
77526;BME280;66627;29.424;-98.496;2023-05-29T02:35:39;98810.09;;;26.08;43.23
77526;BME280;66627;29.424;-98.496;2023-05-29T02:38:05;98812.71;;;26.38;42.74
77526;BME280;66627;29.424;-98.496;2023-05-29T02:40:29;98813.46;;;26.27;43.18
77526;BME280;66627;29.424;-98.496;2023-05-29T02:42:55;98811.95;;;25.61;43.56
77526;BME280;66627;29.424;-98.496;2023-05-29T02:45:21;98816.34;;;27.05;41.82
77526;BME280;66627;29.424;-98.496;2023-05-29T02:47:46;98821.61;;;26.12;43.12
77526;BME280;66627;29.424;-98.496;2023-05-29T02:50:12;98830.08;;;27.25;41.33
77526;BME280;66627;29.424;-98.496;2023-05-29T02:52:37;98836.55;;;27.02;42.20
77526;BME280;66627;29.424;-98.496;2023-05-29T02:55:04;98838.86;;;27.05;41.16
77526;BME280;66627;29.424;-98.496;2023-05-29T02:57:29;98844.57;;;27.41;41.78
77526;BME280;66627;29.424;-98.496;2023-05-29T02:59:56;98856.73;;;27.64;41.21
77526;BME280;66627;29.424;-98.496;2023-05-29T03:02:20;98863.74;;;27.23;41.33
77526;BME280;66627;29.424;-98.496;2023-05-29T03:04:46;98865.51;;;27.27;41.86
77526;BME280;66627;29.424;-98.496;2023-05-29T03:07:11;98865.49;;;26.95;42.44
77526;BME280;66627;29.424;-98.496;2023-05-29T03:09:37;98862.24;;;27.04;41.74
77526;BME280;66627;29.424;-98.496;2023-05-29T03:12:03;98860.76;;;27.00;42.06
77526;BME280;66627;29.424;-98.496;2023-05-29T03:14:28;98861.94;;;26.20;42.82
77526;BME280;66627;29.424;-98.496;2023-05-29T03:16:54;98858.39;;;25.89;43.92
77526;BME280;66627;29.424;-98.496;2023-05-29T03:19:20;98853.49;;;25.86;43.89
77526;BME280;66627;29.424;-98.496;2023-05-29T03:21:44;98857.68;;;26.39;42.82
77526;BME280;66627;29.424;-98.496;2023-05-29T03:24:10;98859.44;;;26.74;42.53
77526;BME280;66627;29.424;-98.496;2023-05-29T03:26:35;98856.07;;;26.73;42.86
77526;BME280;66627;29.424;-98.496;2023-05-29T03:29:00;98854.35;;;26.69;42.92
77526;BME280;66627;29.424;-98.496;2023-05-29T03:31:25;98853.85;;;26.85;42.59
77526;BME280;66627;29.424;-98.496;2023-05-29T03:33:52;98848.04;;;26.11;43.37
77526;BME280;66627;29.424;-98.496;2023-05-29T03:36:16;98849.27;;;26.22;43.43
77526;BME280;66627;29.424;-98.496;2023-05-29T03:38:42;98850.46;;;26.52;42.97
77526;BME280;66627;29.424;-98.496;2023-05-29T03:41:07;98856.93;;;26.11;43.05
77526;BME280;66627;29.424;-98.496;2023-05-29T03:43:32;98863.01;;;26.17;43.63
77526;BME280;66627;29.424;-98.496;2023-05-29T03:45:58;98867.39;;;26.31;43.39
77526;BME280;66627;29.424;-98.496;2023-05-29T03:48:24;98867.54;;;26.05;43.55
77526;BME280;66627;29.424;-98.496;2023-05-29T03:50:50;98867.21;;;25.87;43.78
77526;BME280;66627;29.424;-98.496;2023-05-29T03:53:14;98859.09;;;26.02;43.42
77526;BME280;66627;29.424;-98.496;2023-05-29T03:55:40;98855.68;;;26.21;43.28
77526;BME280;66627;29.424;-98.496;2023-05-29T03:58:05;98849.44;;;26.11;43.46
77526;BME280;66627;29.424;-98.496;2023-05-29T04:00:31;98850.97;;;26.35;43.21
77526;BME280;66627;29.424;-98.496;2023-05-29T04:02:57;98847.95;;;25.90;43.51
77526;BME280;66627;29.424;-98.496;2023-05-29T04:05:23;98851.50;;;26.25;43.24
77526;BME280;66627;29.424;-98.496;2023-05-29T04:07:47;98847.72;;;25.89;43.42
77526;BME280;66627;29.424;-98.496;2023-05-29T04:10:14;98849.86;;;26.16;43.18
77526;BME280;66627;29.424;-98.496;2023-05-29T04:12:40;98849.71;;;26.44;43.13
77526;BME280;66627;29.424;-98.496;2023-05-29T04:15:05;98850.01;;;26.14;43.20
77526;BME280;66627;29.424;-98.496;2023-05-29T04:17:29;98851.99;;;26.21;43.55
77526;BME280;66627;29.424;-98.496;2023-05-29T04:19:55;98856.96;;;25.77;43.87
77526;BME280;66627;29.424;-98.496;2023-05-29T04:22:21;98858.21;;;26.02;43.77
77526;BME280;66627;29.424;-98.496;2023-05-29T04:24:47;98867.56;;;26.48;42.89
77526;BME280;66627;29.424;-98.496;2023-05-29T04:27:12;98862.56;;;25.79;44.00
77526;BME280;66627;29.424;-98.496;2023-05-29T04:32:03;98858.02;;;25.75;43.80
77526;BME280;66627;29.424;-98.496;2023-05-29T04:34:28;98854.10;;;25.63;44.47
77526;BME280;66627;29.424;-98.496;2023-05-29T04:36:53;98854.54;;;25.68;43.92
77526;BME280;66627;29.424;-98.496;2023-05-29T04:39:19;98855.33;;;25.99;44.79
77526;BME280;66627;29.424;-98.496;2023-05-29T04:41:44;98858.54;;;25.78;44.46
77526;BME280;66627;29.424;-98.496;2023-05-29T04:44:10;98855.14;;;25.83;44.40
77526;BME280;66627;29.424;-98.496;2023-05-29T04:46:35;98851.87;;;25.73;44.44
77526;BME280;66627;29.424;-98.496;2023-05-29T04:49:01;98850.03;;;25.86;44.31
77526;BME280;66627;29.424;-98.496;2023-05-29T04:51:27;98848.36;;;25.91;44.44
77526;BME280;66627;29.424;-98.496;2023-05-29T04:53:52;98850.28;;;25.46;44.67
77526;BME280;66627;29.424;-98.496;2023-05-29T04:56:18;98851.28;;;25.97;44.44
77526;BME280;66627;29.424;-98.496;2023-05-29T04:58:43;98850.72;;;25.23;45.46
77526;BME280;66627;29.424;-98.496;2023-05-29T05:01:09;98850.00;;;25.87;44.56
77526;BME280;66627;29.424;-98.496;2023-05-29T05:03:34;98850.27;;;25.73;45.01
77526;BME280;66627;29.424;-98.496;2023-05-29T05:06:00;98843.98;;;25.17;46.22
77526;BME280;66627;29.424;-98.496;2023-05-29T05:08:24;98841.12;;;25.18;46.12
77526;BME280;66627;29.424;-98.496;2023-05-29T05:10:51;98839.58;;;25.92;45.49
77526;BME280;66627;29.424;-98.496;2023-05-29T05:13:16;98828.63;;;25.97;44.46
77526;BME280;66627;29.424;-98.496;2023-05-29T05:15:41;98821.89;;;25.72;45.29
77526;BME280;66627;29.424;-98.496;2023-05-29T05:18:06;98816.56;;;26.16;45.37
77526;BME280;66627;29.424;-98.496;2023-05-29T05:20:31;98814.68;;;25.40;45.36
77526;BME280;66627;29.424;-98.496;2023-05-29T05:22:56;98815.24;;;25.22;45.95
77526;BME280;66627;29.424;-98.496;2023-05-29T05:25:22;98810.36;;;25.02;46.20
77526;BME280;66627;29.424;-98.496;2023-05-29T05:27:47;98806.11;;;25.51;45.63
77526;BME280;66627;29.424;-98.496;2023-05-29T05:30:14;98809.30;;;25.33;45.79
77526;BME280;66627;29.424;-98.496;2023-05-29T05:32:38;98811.60;;;25.77;45.94
77526;BME280;66627;29.424;-98.496;2023-05-29T05:35:04;98807.80;;;25.46;46.55
77526;BME280;66627;29.424;-98.496;2023-05-29T05:37:29;98807.05;;;25.51;46.39
77526;BME280;66627;29.424;-98.496;2023-05-29T05:39:55;98806.83;;;25.69;46.24
77526;BME280;66627;29.424;-98.496;2023-05-29T05:42:20;98807.63;;;25.35;46.62
77526;BME280;66627;29.424;-98.496;2023-05-29T05:44:46;98802.78;;;25.35;46.28
77526;BME280;66627;29.424;-98.496;2023-05-29T05:47:12;98796.22;;;24.83;47.51
77526;BME280;66627;29.424;-98.496;2023-05-29T05:49:37;98795.24;;;25.48;46.58
77526;BME280;66627;29.424;-98.496;2023-05-29T05:52:03;98789.02;;;25.76;46.29
77526;BME280;66627;29.424;-98.496;2023-05-29T05:54:28;98795.21;;;25.50;46.53
77526;BME280;66627;29.424;-98.496;2023-05-29T05:56:53;98794.30;;;24.99;46.87
77526;BME280;66627;29.424;-98.496;2023-05-29T05:59:18;98795.96;;;25.09;47.31
77526;BME280;66627;29.424;-98.496;2023-05-29T06:01:43;98804.62;;;25.03;47.55
77526;BME280;66627;29.424;-98.496;2023-05-29T06:04:08;98811.33;;;25.48;46.75
77526;BME280;66627;29.424;-98.496;2023-05-29T06:06:34;98815.89;;;25.10;47.35
77526;BME280;66627;29.424;-98.496;2023-05-29T06:08:59;98814.84;;;24.53;48.01
77526;BME280;66627;29.424;-98.496;2023-05-29T06:11:25;98820.02;;;24.01;49.17
77526;BME280;66627;29.424;-98.496;2023-05-29T06:13:50;98824.73;;;23.44;50.70
77526;BME280;66627;29.424;-98.496;2023-05-29T06:16:16;98828.56;;;24.26;49.29
77526;BME280;66627;29.424;-98.496;2023-05-29T06:18:41;98834.02;;;23.29;50.94
77526;BME280;66627;29.424;-98.496;2023-05-29T06:21:07;98832.84;;;24.24;49.84
77526;BME280;66627;29.424;-98.496;2023-05-29T06:23:33;98836.22;;;24.87;49.06
77526;BME280;66627;29.424;-98.496;2023-05-29T06:25:58;98839.69;;;23.57;50.86
77526;BME280;66627;29.424;-98.496;2023-05-29T06:28:25;98846.18;;;24.35;49.77
77526;BME280;66627;29.424;-98.496;2023-05-29T06:30:49;98852.98;;;23.38;51.00
77526;BME280;66627;29.424;-98.496;2023-05-29T06:33:15;98853.69;;;23.74;50.89
77526;BME280;66627;29.424;-98.496;2023-05-29T06:35:40;98852.90;;;23.43;51.33
77526;BME280;66627;29.424;-98.496;2023-05-29T06:38:06;98851.32;;;23.79;51.34
77526;BME280;66627;29.424;-98.496;2023-05-29T06:40:31;98847.97;;;24.47;50.54
77526;BME280;66627;29.424;-98.496;2023-05-29T06:42:56;98848.91;;;24.90;49.11
77526;BME280;66627;29.424;-98.496;2023-05-29T06:45:22;98846.15;;;24.75;49.11
77526;BME280;66627;29.424;-98.496;2023-05-29T06:47:48;98845.33;;;24.22;49.62
77526;BME280;66627;29.424;-98.496;2023-05-29T06:50:13;98848.34;;;23.02;52.32
77526;BME280;66627;29.424;-98.496;2023-05-29T06:52:38;98846.88;;;24.36;50.88
77526;BME280;66627;29.424;-98.496;2023-05-29T06:55:04;98843.26;;;24.28;49.76
77526;BME280;66627;29.424;-98.496;2023-05-29T06:57:29;98839.24;;;24.11;50.83
77526;BME280;66627;29.424;-98.496;2023-05-29T06:59:55;98840.79;;;22.95;53.10
77526;BME280;66627;29.424;-98.496;2023-05-29T07:02:20;98841.49;;;22.57;54.11
77526;BME280;66627;29.424;-98.496;2023-05-29T07:04:45;98842.23;;;21.94;55.45
77526;BME280;66627;29.424;-98.496;2023-05-29T07:07:11;98840.42;;;22.53;54.20
77526;BME280;66627;29.424;-98.496;2023-05-29T07:09:36;98841.18;;;22.93;53.90
77526;BME280;66627;29.424;-98.496;2023-05-29T07:12:02;98843.57;;;23.31;53.34
77526;BME280;66627;29.424;-98.496;2023-05-29T07:14:27;98855.22;;;22.31;55.21
77526;BME280;66627;29.424;-98.496;2023-05-29T07:16:52;98856.90;;;22.70;54.13
77526;BME280;66627;29.424;-98.496;2023-05-29T07:19:18;98860.64;;;22.47;54.59
77526;BME280;66627;29.424;-98.496;2023-05-29T07:21:43;98859.56;;;24.53;51.90
77526;BME280;66627;29.424;-98.496;2023-05-29T07:24:09;98854.50;;;24.65;51.06
77526;BME280;66627;29.424;-98.496;2023-05-29T07:26:35;98851.75;;;23.70;52.28
77526;BME280;66627;29.424;-98.496;2023-05-29T07:29:01;98852.49;;;22.95;53.43
77526;BME280;66627;29.424;-98.496;2023-05-29T07:31:26;98849.10;;;23.60;52.22
77526;BME280;66627;29.424;-98.496;2023-05-29T07:33:52;98845.85;;;24.13;51.56
77526;BME280;66627;29.424;-98.496;2023-05-29T07:36:17;98832.11;;;24.28;50.70
77526;BME280;66627;29.424;-98.496;2023-05-29T07:38:43;98827.36;;;24.30;50.70
77526;BME280;66627;29.424;-98.496;2023-05-29T07:41:07;98823.75;;;24.77;50.25
77526;BME280;66627;29.424;-98.496;2023-05-29T07:43:33;98820.11;;;23.94;50.90
77526;BME280;66627;29.424;-98.496;2023-05-29T07:45:59;98817.85;;;23.19;52.61
77526;BME280;66627;29.424;-98.496;2023-05-29T07:48:24;98818.37;;;23.02;53.34
77526;BME280;66627;29.424;-98.496;2023-05-29T07:50:50;98817.41;;;24.03;51.09
77526;BME280;66627;29.424;-98.496;2023-05-29T07:53:15;98815.68;;;24.49;50.21
77526;BME280;66627;29.424;-98.496;2023-05-29T07:55:40;98809.29;;;24.40;50.43
77526;BME280;66627;29.424;-98.496;2023-05-29T07:58:06;98804.11;;;23.90;51.13
77526;BME280;66627;29.424;-98.496;2023-05-29T08:00:32;98804.09;;;24.21;50.74
77526;BME280;66627;29.424;-98.496;2023-05-29T08:02:58;98803.45;;;24.85;49.86
77526;BME280;66627;29.424;-98.496;2023-05-29T08:05:22;98801.51;;;25.04;48.83
77526;BME280;66627;29.424;-98.496;2023-05-29T08:07:48;98793.73;;;25.04;49.06
77526;BME280;66627;29.424;-98.496;2023-05-29T08:10:13;98792.80;;;25.17;49.28
77526;BME280;66627;29.424;-98.496;2023-05-29T08:12:40;98794.64;;;25.29;48.85
77526;BME280;66627;29.424;-98.496;2023-05-29T08:15:06;98796.85;;;24.78;49.08
77526;BME280;66627;29.424;-98.496;2023-05-29T08:17:31;98798.34;;;24.43;49.65
77526;BME280;66627;29.424;-98.496;2023-05-29T08:19:57;98800.42;;;24.43;50.20
77526;BME280;66627;29.424;-98.496;2023-05-29T08:22:28;98800.63;;;24.52;49.78
77526;BME280;66627;29.424;-98.496;2023-05-29T08:24:48;98799.68;;;24.13;50.16
77526;BME280;66627;29.424;-98.496;2023-05-29T08:27:13;98797.84;;;24.62;49.73
77526;BME280;66627;29.424;-98.496;2023-05-29T08:29:38;98796.52;;;24.57;49.38
77526;BME280;66627;29.424;-98.496;2023-05-29T08:32:04;98800.36;;;23.31;51.98
77526;BME280;66627;29.424;-98.496;2023-05-29T08:34:30;98799.19;;;24.20;51.60
77526;BME280;66627;29.424;-98.496;2023-05-29T08:36:54;98797.59;;;24.79;49.87
77526;BME280;66627;29.424;-98.496;2023-05-29T08:39:20;98799.36;;;24.61;50.41
77526;BME280;66627;29.424;-98.496;2023-05-29T08:41:51;98799.10;;;24.47;50.50
77526;BME280;66627;29.424;-98.496;2023-05-29T08:44:13;98796.84;;;25.16;49.48
77526;BME280;66627;29.424;-98.496;2023-05-29T08:46:37;98793.91;;;24.44;50.48
77526;BME280;66627;29.424;-98.496;2023-05-29T08:49:02;98791.23;;;24.86;49.68
77526;BME280;66627;29.424;-98.496;2023-05-29T08:51:31;98790.03;;;24.38;50.81
77526;BME280;66627;29.424;-98.496;2023-05-29T08:53:51;98783.24;;;23.82;51.57
77526;BME280;66627;29.424;-98.496;2023-05-29T08:56:16;98778.09;;;24.85;50.54
77526;BME280;66627;29.424;-98.496;2023-05-29T08:58:42;98776.56;;;23.78;51.66
77526;BME280;66627;29.424;-98.496;2023-05-29T09:01:07;98778.47;;;23.41;52.99
77526;BME280;66627;29.424;-98.496;2023-05-29T09:03:35;98780.53;;;23.38;53.03
77526;BME280;66627;29.424;-98.496;2023-05-29T09:05:59;98775.89;;;23.80;52.27
77526;BME280;66627;29.424;-98.496;2023-05-29T09:08:23;98772.90;;;24.71;51.50
77526;BME280;66627;29.424;-98.496;2023-05-29T09:10:49;98766.29;;;24.16;51.86
77526;BME280;66627;29.424;-98.496;2023-05-29T09:13:14;98764.05;;;23.63;52.72
77526;BME280;66627;29.424;-98.496;2023-05-29T09:15:40;98761.88;;;23.89;52.02
77526;BME280;66627;29.424;-98.496;2023-05-29T09:18:05;98760.05;;;22.67;54.37
77526;BME280;66627;29.424;-98.496;2023-05-29T09:20:31;98758.56;;;23.77;52.92
77526;BME280;66627;29.424;-98.496;2023-05-29T09:22:57;98756.02;;;24.63;50.78
77526;BME280;66627;29.424;-98.496;2023-05-29T09:25:22;98753.43;;;23.78;51.80
77526;BME280;66627;29.424;-98.496;2023-05-29T09:27:47;98753.52;;;24.24;51.70
77526;BME280;66627;29.424;-98.496;2023-05-29T09:30:16;98750.10;;;23.22;53.16
77526;BME280;66627;29.424;-98.496;2023-05-29T09:32:37;98745.25;;;24.13;51.87
77526;BME280;66627;29.424;-98.496;2023-05-29T09:35:03;98740.93;;;25.02;49.75
77526;BME280;66627;29.424;-98.496;2023-05-29T09:37:28;98734.66;;;24.95;49.75
77526;BME280;66627;29.424;-98.496;2023-05-29T09:39:53;98731.10;;;24.89;49.42
77526;BME280;66627;29.424;-98.496;2023-05-29T09:42:19;98723.08;;;24.77;50.10
77526;BME280;66627;29.424;-98.496;2023-05-29T09:44:46;98721.78;;;24.67;49.63
77526;BME280;66627;29.424;-98.496;2023-05-29T09:47:10;98717.11;;;24.34;50.15
77526;BME280;66627;29.424;-98.496;2023-05-29T09:49:35;98715.01;;;24.83;49.16
77526;BME280;66627;29.424;-98.496;2023-05-29T09:52:00;98717.88;;;24.70;49.88
77526;BME280;66627;29.424;-98.496;2023-05-29T09:54:27;98718.13;;;24.42;50.24
77526;BME280;66627;29.424;-98.496;2023-05-29T09:56:51;98716.59;;;24.40;50.00
77526;BME280;66627;29.424;-98.496;2023-05-29T09:59:16;98717.26;;;24.60;49.58
77526;BME280;66627;29.424;-98.496;2023-05-29T10:01:43;98720.99;;;24.13;50.70
77526;BME280;66627;29.424;-98.496;2023-05-29T10:04:08;98725.67;;;23.76;51.62
77526;BME280;66627;29.424;-98.496;2023-05-29T10:06:34;98724.50;;;24.07;51.28
77526;BME280;66627;29.424;-98.496;2023-05-29T10:08:59;98724.07;;;24.00;51.37
77526;BME280;66627;29.424;-98.496;2023-05-29T10:11:24;98726.77;;;23.52;52.07
77526;BME280;66627;29.424;-98.496;2023-05-29T10:13:49;98722.86;;;23.40;52.89
77526;BME280;66627;29.424;-98.496;2023-05-29T10:16:14;98720.91;;;23.72;52.45
77526;BME280;66627;29.424;-98.496;2023-05-29T10:18:43;98720.94;;;24.01;51.79
77526;BME280;66627;29.424;-98.496;2023-05-29T10:21:07;98724.71;;;23.86;51.91
77526;BME280;66627;29.424;-98.496;2023-05-29T10:23:31;98724.76;;;23.92;51.85
77526;BME280;66627;29.424;-98.496;2023-05-29T10:25:59;98722.63;;;23.54;52.61
77526;BME280;66627;29.424;-98.496;2023-05-29T10:28:21;98724.99;;;23.71;51.78
77526;BME280;66627;29.424;-98.496;2023-05-29T10:30:53;98728.02;;;23.69;51.96
77526;BME280;66627;29.424;-98.496;2023-05-29T10:33:26;98730.09;;;23.93;51.50
77526;BME280;66627;29.424;-98.496;2023-05-29T10:35:44;98733.95;;;23.73;51.58
77526;BME280;66627;29.424;-98.496;2023-05-29T10:38:10;98740.61;;;23.19;52.79
77526;BME280;66627;29.424;-98.496;2023-05-29T10:40:28;98747.70;;;23.24;52.74
77526;BME280;66627;29.424;-98.496;2023-05-29T10:42:55;98752.15;;;23.34;52.74
77526;BME280;66627;29.424;-98.496;2023-05-29T10:47:46;98754.53;;;23.93;52.80
77526;BME280;66627;29.424;-98.496;2023-05-29T10:50:11;98756.32;;;23.24;53.34
77526;BME280;66627;29.424;-98.496;2023-05-29T10:52:46;98760.41;;;23.30;52.75
77526;BME280;66627;29.424;-98.496;2023-05-29T10:55:02;98764.08;;;22.82;53.49
77526;BME280;66627;29.424;-98.496;2023-05-29T10:57:29;98764.29;;;23.64;51.85
77526;BME280;66627;29.424;-98.496;2023-05-29T11:00:03;98768.28;;;23.08;53.35
77526;BME280;66627;29.424;-98.496;2023-05-29T11:02:21;98773.35;;;23.39;53.04
77526;BME280;66627;29.424;-98.496;2023-05-29T11:04:44;98782.63;;;23.84;51.71
77526;BME280;66627;29.424;-98.496;2023-05-29T11:09:36;98786.50;;;23.40;52.88
77526;BME280;66627;29.424;-98.496;2023-05-29T11:12:11;98794.48;;;23.65;52.82
77526;BME280;66627;29.424;-98.496;2023-05-29T11:14:29;98799.80;;;24.02;52.29
77526;BME280;66627;29.424;-98.496;2023-05-29T11:16:51;98803.06;;;23.39;53.08
77526;BME280;66627;29.424;-98.496;2023-05-29T11:19:17;98801.17;;;23.72;53.33
77526;BME280;66627;29.424;-98.496;2023-05-29T11:21:57;98804.84;;;23.22;53.27
77526;BME280;66627;29.424;-98.496;2023-05-29T11:24:07;98816.11;;;22.14;55.43
77526;BME280;66627;29.424;-98.496;2023-05-29T11:26:33;98815.31;;;23.02;54.20
77526;BME280;66627;29.424;-98.496;2023-05-29T11:28:59;98814.29;;;23.09;53.89
77526;BME280;66627;29.424;-98.496;2023-05-29T11:31:23;98819.18;;;23.25;53.61
77526;BME280;66627;29.424;-98.496;2023-05-29T11:33:49;98823.73;;;23.47;52.93
77526;BME280;66627;29.424;-98.496;2023-05-29T11:36:17;98826.49;;;23.67;52.77
77526;BME280;66627;29.424;-98.496;2023-05-29T11:38:39;98824.31;;;23.68;52.74
77526;BME280;66627;29.424;-98.496;2023-05-29T11:41:04;98829.67;;;23.40;53.01
77526;BME280;66627;29.424;-98.496;2023-05-29T11:43:30;98829.95;;;23.61;52.96
77526;BME280;66627;29.424;-98.496;2023-05-29T11:45:55;98831.34;;;23.76;52.40
77526;BME280;66627;29.424;-98.496;2023-05-29T11:48:20;98833.87;;;23.76;52.73
77526;BME280;66627;29.424;-98.496;2023-05-29T11:50:48;98833.14;;;24.25;51.39
77526;BME280;66627;29.424;-98.496;2023-05-29T11:53:12;98835.25;;;23.85;52.20
77526;BME280;66627;29.424;-98.496;2023-05-29T11:55:37;98830.50;;;23.82;52.10
77526;BME280;66627;29.424;-98.496;2023-05-29T11:58:03;98835.91;;;24.07;51.66
77526;BME280;66627;29.424;-98.496;2023-05-29T12:00:30;98836.43;;;23.51;53.03
77526;BME280;66627;29.424;-98.496;2023-05-29T12:02:53;98840.93;;;23.76;52.26
77526;BME280;66627;29.424;-98.496;2023-05-29T12:05:18;98848.11;;;23.71;52.73
77526;BME280;66627;29.424;-98.496;2023-05-29T12:07:47;98850.16;;;24.06;52.39
77526;BME280;66627;29.424;-98.496;2023-05-29T12:10:12;98851.72;;;23.87;52.85
77526;BME280;66627;29.424;-98.496;2023-05-29T12:12:34;98853.28;;;24.18;52.09
77526;BME280;66627;29.424;-98.496;2023-05-29T12:14:59;98860.33;;;24.18;51.64
77526;BME280;66627;29.424;-98.496;2023-05-29T12:17:24;98867.48;;;24.30;51.39
77526;BME280;66627;29.424;-98.496;2023-05-29T12:19:50;98870.49;;;24.04;52.91
77526;BME280;66627;29.424;-98.496;2023-05-29T12:22:15;98871.92;;;23.91;53.40
77526;BME280;66627;29.424;-98.496;2023-05-29T12:24:41;98873.99;;;24.30;52.54
77526;BME280;66627;29.424;-98.496;2023-05-29T12:27:08;98871.86;;;24.27;52.15
77526;BME280;66627;29.424;-98.496;2023-05-29T12:29:33;98868.48;;;24.64;52.05
77526;BME280;66627;29.424;-98.496;2023-05-29T12:31:59;98869.02;;;24.41;52.14
77526;BME280;66627;29.424;-98.496;2023-05-29T12:34:22;98875.63;;;24.65;52.23
77526;BME280;66627;29.424;-98.496;2023-05-29T12:36:47;98877.78;;;24.67;51.90
77526;BME280;66627;29.424;-98.496;2023-05-29T12:39:12;98881.72;;;24.42;52.16
77526;BME280;66627;29.424;-98.496;2023-05-29T12:41:39;98880.37;;;24.80;51.58